sensor_id;sensor_type;location;lat;lon;timestamp;P1;durP1;ratioP1;P2;durP2;ratioP2
43363;SDS011;40636;52.424;-1.948;2023-01-28T00:01:17;8.05;;;5.53;;
43363;SDS011;40636;52.424;-1.948;2023-01-28T00:03:45;11.02;;;5.80;;
43363;SDS011;40636;52.424;-1.948;2023-01-28T00:06:16;8.48;;;5.40;;
43363;SDS011;40636;52.424;-1.948;2023-01-28T00:08:44;11.57;;;6.35;;
43363;SDS011;40636;52.424;-1.948;2023-01-28T00:11:11;13.38;;;6.78;;
43363;SDS011;40636;52.424;-1.948;2023-01-28T00:13:38;11.20;;;6.97;;
43363;SDS011;40636;52.424;-1.948;2023-01-28T00:16:06;11.45;;;6.75;;
43363;SDS011;40636;52.424;-1.948;2023-01-28T00:18:34;11.65;;;7.68;;
43363;SDS011;40636;52.424;-1.948;2023-01-28T00:21:05;10.13;;;6.57;;
43363;SDS011;40636;52.424;-1.948;2023-01-28T00:23:34;7.82;;;5.85;;
43363;SDS011;40636;52.424;-1.948;2023-01-28T00:26:03;13.05;;;6.68;;
43363;SDS011;40636;52.424;-1.948;2023-01-28T00:28:31;9.32;;;6.43;;
43363;SDS011;40636;52.424;-1.948;2023-01-28T00:31:04;14.13;;;6.65;;
43363;SDS011;40636;52.424;-1.948;2023-01-28T00:33:32;14.85;;;6.95;;
43363;SDS011;40636;52.424;-1.948;2023-01-28T00:35:59;10.88;;;6.18;;
43363;SDS011;40636;52.424;-1.948;2023-01-28T00:38:26;12.40;;;5.97;;
43363;SDS011;40636;52.424;-1.948;2023-01-28T00:40:54;9.80;;;6.72;;
43363;SDS011;40636;52.424;-1.948;2023-01-28T00:43:21;11.60;;;6.72;;
43363;SDS011;40636;52.424;-1.948;2023-01-28T00:45:48;12.50;;;6.63;;
43363;SDS011;40636;52.424;-1.948;2023-01-28T00:48:15;16.17;;;6.82;;
43363;SDS011;40636;52.424;-1.948;2023-01-28T00:50:43;11.05;;;8.00;;
43363;SDS011;40636;52.424;-1.948;2023-01-28T00:53:10;14.00;;;7.07;;
43363;SDS011;40636;52.424;-1.948;2023-01-28T00:55:37;14.98;;;8.25;;
43363;SDS011;40636;52.424;-1.948;2023-01-28T00:58:04;14.32;;;6.53;;
43363;SDS011;40636;52.424;-1.948;2023-01-28T01:00:31;10.40;;;6.63;;
43363;SDS011;40636;52.424;-1.948;2023-01-28T01:02:58;11.95;;;6.78;;
43363;SDS011;40636;52.424;-1.948;2023-01-28T01:05:25;16.52;;;8.27;;
43363;SDS011;40636;52.424;-1.948;2023-01-28T01:07:51;10.80;;;5.68;;
43363;SDS011;40636;52.424;-1.948;2023-01-28T01:10:18;11.70;;;6.45;;
43363;SDS011;40636;52.424;-1.948;2023-01-28T01:12:45;13.13;;;6.97;;
43363;SDS011;40636;52.424;-1.948;2023-01-28T01:15:13;12.75;;;7.10;;
43363;SDS011;40636;52.424;-1.948;2023-01-28T01:17:42;18.05;;;6.78;;
43363;SDS011;40636;52.424;-1.948;2023-01-28T01:20:12;9.85;;;6.15;;
43363;SDS011;40636;52.424;-1.948;2023-01-28T01:22:41;15.48;;;7.78;;
43363;SDS011;40636;52.424;-1.948;2023-01-28T01:25:08;11.55;;;7.03;;
43363;SDS011;40636;52.424;-1.948;2023-01-28T01:27:35;10.43;;;6.30;;
43363;SDS011;40636;52.424;-1.948;2023-01-28T01:30:02;12.93;;;7.45;;
43363;SDS011;40636;52.424;-1.948;2023-01-28T01:32:30;10.73;;;7.03;;
43363;SDS011;40636;52.424;-1.948;2023-01-28T01:34:57;12.90;;;7.20;;
43363;SDS011;40636;52.424;-1.948;2023-01-28T01:37:25;10.98;;;6.50;;
43363;SDS011;40636;52.424;-1.948;2023-01-28T01:39:52;9.98;;;6.40;;
43363;SDS011;40636;52.424;-1.948;2023-01-28T01:42:19;14.00;;;6.90;;
43363;SDS011;40636;52.424;-1.948;2023-01-28T01:45:05;11.05;;;6.18;;
43363;SDS011;40636;52.424;-1.948;2023-01-28T01:50:08;10.10;;;5.93;;
43363;SDS011;40636;52.424;-1.948;2023-01-28T01:55:23;9.98;;;6.65;;
43363;SDS011;40636;52.424;-1.948;2023-01-28T01:57:53;12.98;;;6.53;;
43363;SDS011;40636;52.424;-1.948;2023-01-28T02:00:22;10.88;;;6.55;;
43363;SDS011;40636;52.424;-1.948;2023-01-28T02:02:48;10.18;;;6.85;;
43363;SDS011;40636;52.424;-1.948;2023-01-28T02:05:18;12.38;;;6.40;;
43363;SDS011;40636;52.424;-1.948;2023-01-28T02:07:47;13.15;;;6.88;;
43363;SDS011;40636;52.424;-1.948;2023-01-28T02:10:17;9.95;;;5.72;;
43363;SDS011;40636;52.424;-1.948;2023-01-28T02:12:48;10.70;;;6.18;;
43363;SDS011;40636;52.424;-1.948;2023-01-28T02:15:21;12.85;;;6.07;;
43363;SDS011;40636;52.424;-1.948;2023-01-28T02:17:50;11.15;;;6.75;;
43363;SDS011;40636;52.424;-1.948;2023-01-28T02:20:22;11.32;;;6.50;;
43363;SDS011;40636;52.424;-1.948;2023-01-28T02:25:42;11.75;;;6.57;;
43363;SDS011;40636;52.424;-1.948;2023-01-28T02:38:53;11.88;;;5.82;;
43363;SDS011;40636;52.424;-1.948;2023-01-28T02:41:29;12.38;;;6.85;;
43363;SDS011;40636;52.424;-1.948;2023-01-28T02:44:01;8.15;;;5.75;;
43363;SDS011;40636;52.424;-1.948;2023-01-28T03:00:08;9.20;;;5.57;;
43363;SDS011;40636;52.424;-1.948;2023-01-28T03:02:45;9.80;;;6.38;;
43363;SDS011;40636;52.424;-1.948;2023-01-28T03:05:27;8.98;;;6.53;;
43363;SDS011;40636;52.424;-1.948;2023-01-28T03:07:56;10.30;;;6.40;;
43363;SDS011;40636;52.424;-1.948;2023-01-28T03:10:24;11.75;;;6.47;;
43363;SDS011;40636;52.424;-1.948;2023-01-28T03:12:54;9.13;;;5.05;;
43363;SDS011;40636;52.424;-1.948;2023-01-28T03:15:50;11.48;;;7.35;;
43363;SDS011;40636;52.424;-1.948;2023-01-28T03:18:38;9.00;;;5.75;;
43363;SDS011;40636;52.424;-1.948;2023-01-28T03:21:33;11.30;;;6.13;;
43363;SDS011;40636;52.424;-1.948;2023-01-28T03:24:27;16.13;;;6.68;;
43363;SDS011;40636;52.424;-1.948;2023-01-28T03:27:24;12.70;;;6.30;;
43363;SDS011;40636;52.424;-1.948;2023-01-28T03:30:18;10.95;;;6.18;;
43363;SDS011;40636;52.424;-1.948;2023-01-28T03:33:06;10.73;;;5.75;;
43363;SDS011;40636;52.424;-1.948;2023-01-28T03:35:51;8.98;;;6.05;;
43363;SDS011;40636;52.424;-1.948;2023-01-28T03:38:38;10.85;;;5.95;;
43363;SDS011;40636;52.424;-1.948;2023-01-28T03:41:19;9.75;;;5.97;;
43363;SDS011;40636;52.424;-1.948;2023-01-28T03:43:47;12.23;;;6.75;;
43363;SDS011;40636;52.424;-1.948;2023-01-28T03:46:15;13.20;;;6.82;;
43363;SDS011;40636;52.424;-1.948;2023-01-28T03:48:43;13.68;;;6.95;;
43363;SDS011;40636;52.424;-1.948;2023-01-28T03:51:11;14.07;;;6.53;;
43363;SDS011;40636;52.424;-1.948;2023-01-28T03:53:38;8.85;;;5.15;;
43363;SDS011;40636;52.424;-1.948;2023-01-28T03:56:05;8.85;;;6.10;;
43363;SDS011;40636;52.424;-1.948;2023-01-28T03:58:34;8.38;;;5.15;;
43363;SDS011;40636;52.424;-1.948;2023-01-28T04:01:19;10.60;;;5.95;;
43363;SDS011;40636;52.424;-1.948;2023-01-28T04:03:45;9.40;;;5.47;;
43363;SDS011;40636;52.424;-1.948;2023-01-28T04:06:12;7.57;;;5.22;;
43363;SDS011;40636;52.424;-1.948;2023-01-28T04:08:39;10.88;;;5.90;;
43363;SDS011;40636;52.424;-1.948;2023-01-28T04:11:18;9.50;;;5.65;;
43363;SDS011;40636;52.424;-1.948;2023-01-28T04:13:47;9.75;;;6.03;;
43363;SDS011;40636;52.424;-1.948;2023-01-28T04:16:14;9.90;;;5.32;;
43363;SDS011;40636;52.424;-1.948;2023-01-28T04:18:42;9.40;;;6.05;;
43363;SDS011;40636;52.424;-1.948;2023-01-28T04:21:10;8.63;;;5.68;;
43363;SDS011;40636;52.424;-1.948;2023-01-28T04:23:37;10.13;;;6.15;;
43363;SDS011;40636;52.424;-1.948;2023-01-28T04:26:04;10.82;;;5.47;;
43363;SDS011;40636;52.424;-1.948;2023-01-28T04:28:31;10.20;;;5.90;;
43363;SDS011;40636;52.424;-1.948;2023-01-28T04:30:57;11.20;;;6.05;;
43363;SDS011;40636;52.424;-1.948;2023-01-28T04:33:25;8.55;;;5.47;;
43363;SDS011;40636;52.424;-1.948;2023-01-28T04:35:52;9.45;;;6.65;;
43363;SDS011;40636;52.424;-1.948;2023-01-28T04:38:19;11.45;;;6.90;;
43363;SDS011;40636;52.424;-1.948;2023-01-28T04:40:48;8.93;;;5.50;;
43363;SDS011;40636;52.424;-1.948;2023-01-28T04:43:18;10.95;;;6.07;;
43363;SDS011;40636;52.424;-1.948;2023-01-28T04:45:46;11.48;;;6.45;;
43363;SDS011;40636;52.424;-1.948;2023-01-28T04:48:13;10.48;;;6.30;;
43363;SDS011;40636;52.424;-1.948;2023-01-28T04:50:42;12.55;;;6.20;;
43363;SDS011;40636;52.424;-1.948;2023-01-28T04:53:10;10.60;;;5.82;;
43363;SDS011;40636;52.424;-1.948;2023-01-28T04:55:37;12.35;;;6.45;;
43363;SDS011;40636;52.424;-1.948;2023-01-28T04:58:03;9.95;;;5.63;;
43363;SDS011;40636;52.424;-1.948;2023-01-28T05:00:30;11.35;;;5.68;;
43363;SDS011;40636;52.424;-1.948;2023-01-28T05:02:57;10.50;;;4.88;;
43363;SDS011;40636;52.424;-1.948;2023-01-28T05:05:24;9.73;;;6.05;;
43363;SDS011;40636;52.424;-1.948;2023-01-28T05:07:51;12.52;;;5.43;;
43363;SDS011;40636;52.424;-1.948;2023-01-28T05:10:19;8.95;;;5.75;;
43363;SDS011;40636;52.424;-1.948;2023-01-28T05:12:47;9.23;;;5.03;;
43363;SDS011;40636;52.424;-1.948;2023-01-28T05:15:15;11.50;;;4.95;;
43363;SDS011;40636;52.424;-1.948;2023-01-28T05:17:43;11.27;;;5.03;;
43363;SDS011;40636;52.424;-1.948;2023-01-28T05:20:10;10.05;;;5.55;;
43363;SDS011;40636;52.424;-1.948;2023-01-28T05:22:38;9.27;;;5.18;;
43363;SDS011;40636;52.424;-1.948;2023-01-28T05:25:06;10.43;;;5.22;;
43363;SDS011;40636;52.424;-1.948;2023-01-28T05:27:34;9.48;;;4.60;;
43363;SDS011;40636;52.424;-1.948;2023-01-28T05:30:00;9.52;;;5.47;;
43363;SDS011;40636;52.424;-1.948;2023-01-28T05:32:27;8.70;;;4.95;;
43363;SDS011;40636;52.424;-1.948;2023-01-28T05:34:54;8.63;;;4.93;;
43363;SDS011;40636;52.424;-1.948;2023-01-28T05:37:21;7.53;;;5.20;;
43363;SDS011;40636;52.424;-1.948;2023-01-28T05:39:47;10.27;;;4.20;;
43363;SDS011;40636;52.424;-1.948;2023-01-28T05:42:14;9.27;;;5.63;;
43363;SDS011;40636;52.424;-1.948;2023-01-28T05:44:41;8.43;;;4.47;;
43363;SDS011;40636;52.424;-1.948;2023-01-28T05:47:08;10.10;;;4.82;;
43363;SDS011;40636;52.424;-1.948;2023-01-28T05:49:36;8.07;;;4.22;;
43363;SDS011;40636;52.424;-1.948;2023-01-28T05:52:02;8.32;;;5.15;;
43363;SDS011;40636;52.424;-1.948;2023-01-28T05:54:29;7.28;;;4.57;;
43363;SDS011;40636;52.424;-1.948;2023-01-28T05:56:56;10.02;;;4.25;;
43363;SDS011;40636;52.424;-1.948;2023-01-28T05:59:22;7.43;;;3.72;;
43363;SDS011;40636;52.424;-1.948;2023-01-28T06:01:49;6.97;;;4.32;;
43363;SDS011;40636;52.424;-1.948;2023-01-28T06:04:16;7.25;;;4.72;;
43363;SDS011;40636;52.424;-1.948;2023-01-28T06:06:45;6.90;;;4.40;;
43363;SDS011;40636;52.424;-1.948;2023-01-28T06:09:12;6.53;;;3.47;;
43363;SDS011;40636;52.424;-1.948;2023-01-28T06:11:39;7.10;;;4.50;;
43363;SDS011;40636;52.424;-1.948;2023-01-28T06:14:06;8.32;;;4.35;;
43363;SDS011;40636;52.424;-1.948;2023-01-28T06:16:32;12.60;;;5.20;;
43363;SDS011;40636;52.424;-1.948;2023-01-28T06:19:00;7.40;;;4.72;;
43363;SDS011;40636;52.424;-1.948;2023-01-28T06:21:27;8.07;;;4.32;;
43363;SDS011;40636;52.424;-1.948;2023-01-28T06:23:55;7.80;;;4.35;;
43363;SDS011;40636;52.424;-1.948;2023-01-28T06:26:22;7.60;;;4.47;;
43363;SDS011;40636;52.424;-1.948;2023-01-28T06:28:49;6.28;;;3.88;;
43363;SDS011;40636;52.424;-1.948;2023-01-28T06:31:16;7.32;;;4.13;;
43363;SDS011;40636;52.424;-1.948;2023-01-28T06:33:42;5.25;;;3.78;;
43363;SDS011;40636;52.424;-1.948;2023-01-28T06:36:09;8.25;;;4.05;;
43363;SDS011;40636;52.424;-1.948;2023-01-28T06:38:36;5.93;;;3.97;;
43363;SDS011;40636;52.424;-1.948;2023-01-28T06:41:03;6.50;;;3.85;;
43363;SDS011;40636;52.424;-1.948;2023-01-28T06:43:29;7.85;;;3.88;;
43363;SDS011;40636;52.424;-1.948;2023-01-28T06:45:56;7.35;;;4.50;;
43363;SDS011;40636;52.424;-1.948;2023-01-28T06:48:25;6.05;;;4.00;;
43363;SDS011;40636;52.424;-1.948;2023-01-28T06:50:53;6.68;;;3.70;;
43363;SDS011;40636;52.424;-1.948;2023-01-28T06:53:20;7.45;;;4.30;;
43363;SDS011;40636;52.424;-1.948;2023-01-28T06:55:47;7.68;;;3.92;;
43363;SDS011;40636;52.424;-1.948;2023-01-28T06:58:14;6.18;;;3.60;;
43363;SDS011;40636;52.424;-1.948;2023-01-28T07:00:40;6.97;;;3.65;;
43363;SDS011;40636;52.424;-1.948;2023-01-28T07:03:07;5.88;;;3.78;;
43363;SDS011;40636;52.424;-1.948;2023-01-28T07:05:34;4.85;;;3.35;;
43363;SDS011;40636;52.424;-1.948;2023-01-28T07:08:00;5.20;;;3.55;;
43363;SDS011;40636;52.424;-1.948;2023-01-28T07:10:28;5.68;;;3.65;;
43363;SDS011;40636;52.424;-1.948;2023-01-28T07:12:55;6.32;;;3.97;;
43363;SDS011;40636;52.424;-1.948;2023-01-28T07:15:21;5.88;;;3.30;;
43363;SDS011;40636;52.424;-1.948;2023-01-28T07:17:48;5.82;;;3.25;;
43363;SDS011;40636;52.424;-1.948;2023-01-28T07:20:15;4.82;;;3.10;;
43363;SDS011;40636;52.424;-1.948;2023-01-28T07:22:43;5.18;;;3.30;;
43363;SDS011;40636;52.424;-1.948;2023-01-28T07:25:11;10.02;;;3.88;;
43363;SDS011;40636;52.424;-1.948;2023-01-28T07:27:44;7.95;;;3.50;;
43363;SDS011;40636;52.424;-1.948;2023-01-28T07:30:15;7.50;;;3.53;;
43363;SDS011;40636;52.424;-1.948;2023-01-28T07:32:43;9.98;;;3.55;;
43363;SDS011;40636;52.424;-1.948;2023-01-28T07:35:10;5.40;;;3.10;;
43363;SDS011;40636;52.424;-1.948;2023-01-28T07:37:37;6.82;;;3.25;;
43363;SDS011;40636;52.424;-1.948;2023-01-28T07:40:05;8.40;;;3.60;;
43363;SDS011;40636;52.424;-1.948;2023-01-28T07:42:32;5.13;;;2.88;;
43363;SDS011;40636;52.424;-1.948;2023-01-28T07:44:58;5.03;;;3.22;;
43363;SDS011;40636;52.424;-1.948;2023-01-28T07:47:25;5.60;;;3.45;;
43363;SDS011;40636;52.424;-1.948;2023-01-28T07:49:52;5.30;;;3.45;;
43363;SDS011;40636;52.424;-1.948;2023-01-28T07:52:18;5.57;;;3.50;;
43363;SDS011;40636;52.424;-1.948;2023-01-28T07:54:45;7.30;;;3.95;;
43363;SDS011;40636;52.424;-1.948;2023-01-28T07:57:12;7.32;;;3.10;;
43363;SDS011;40636;52.424;-1.948;2023-01-28T07:59:39;5.70;;;3.53;;
43363;SDS011;40636;52.424;-1.948;2023-01-28T08:02:08;10.43;;;4.20;;
43363;SDS011;40636;52.424;-1.948;2023-01-28T08:04:37;6.25;;;3.72;;
43363;SDS011;40636;52.424;-1.948;2023-01-28T08:07:05;5.60;;;2.72;;
43363;SDS011;40636;52.424;-1.948;2023-01-28T08:09:33;7.10;;;3.22;;
43363;SDS011;40636;52.424;-1.948;2023-01-28T08:12:00;7.07;;;3.95;;
43363;SDS011;40636;52.424;-1.948;2023-01-28T08:14:28;6.78;;;3.67;;
43363;SDS011;40636;52.424;-1.948;2023-01-28T08:16:54;6.28;;;3.78;;
43363;SDS011;40636;52.424;-1.948;2023-01-28T08:19:23;5.00;;;3.35;;
43363;SDS011;40636;52.424;-1.948;2023-01-28T08:21:49;7.20;;;3.33;;
43363;SDS011;40636;52.424;-1.948;2023-01-28T08:24:16;4.63;;;2.85;;
43363;SDS011;40636;52.424;-1.948;2023-01-28T08:26:43;8.55;;;3.80;;
43363;SDS011;40636;52.424;-1.948;2023-01-28T08:29:11;3.97;;;3.08;;
43363;SDS011;40636;52.424;-1.948;2023-01-28T08:31:38;4.50;;;3.50;;
43363;SDS011;40636;52.424;-1.948;2023-01-28T08:34:04;8.38;;;3.33;;
43363;SDS011;40636;52.424;-1.948;2023-01-28T08:36:31;4.65;;;3.72;;
43363;SDS011;40636;52.424;-1.948;2023-01-28T08:38:58;5.68;;;3.22;;
43363;SDS011;40636;52.424;-1.948;2023-01-28T08:41:24;4.10;;;3.05;;
43363;SDS011;40636;52.424;-1.948;2023-01-28T08:43:51;6.55;;;3.20;;
43363;SDS011;40636;52.424;-1.948;2023-01-28T08:46:18;4.03;;;3.00;;
43363;SDS011;40636;52.424;-1.948;2023-01-28T08:48:44;8.70;;;3.65;;
43363;SDS011;40636;52.424;-1.948;2023-01-28T08:51:11;4.68;;;3.10;;
43363;SDS011;40636;52.424;-1.948;2023-01-28T08:53:39;11.48;;;3.58;;
43363;SDS011;40636;52.424;-1.948;2023-01-28T08:56:06;6.47;;;2.70;;
43363;SDS011;40636;52.424;-1.948;2023-01-28T08:58:33;5.50;;;2.97;;
43363;SDS011;40636;52.424;-1.948;2023-01-28T09:01:03;7.07;;;3.33;;
43363;SDS011;40636;52.424;-1.948;2023-01-28T09:03:31;3.55;;;2.60;;
43363;SDS011;40636;52.424;-1.948;2023-01-28T09:05:59;3.78;;;2.70;;
43363;SDS011;40636;52.424;-1.948;2023-01-28T09:08:27;7.82;;;3.15;;
43363;SDS011;40636;52.424;-1.948;2023-01-28T09:10:56;5.95;;;3.10;;
43363;SDS011;40636;52.424;-1.948;2023-01-28T09:13:24;5.55;;;3.80;;
43363;SDS011;40636;52.424;-1.948;2023-01-28T09:15:51;8.90;;;4.22;;
43363;SDS011;40636;52.424;-1.948;2023-01-28T09:18:18;8.02;;;3.90;;
43363;SDS011;40636;52.424;-1.948;2023-01-28T09:20:45;8.98;;;4.00;;
43363;SDS011;40636;52.424;-1.948;2023-01-28T09:23:12;9.23;;;4.85;;
43363;SDS011;40636;52.424;-1.948;2023-01-28T09:25:39;10.10;;;4.50;;
43363;SDS011;40636;52.424;-1.948;2023-01-28T09:28:06;11.00;;;4.43;;
43363;SDS011;40636;52.424;-1.948;2023-01-28T09:30:33;9.07;;;4.72;;
43363;SDS011;40636;52.424;-1.948;2023-01-28T09:33:03;6.57;;;4.40;;
43363;SDS011;40636;52.424;-1.948;2023-01-28T09:35:29;8.35;;;4.13;;
43363;SDS011;40636;52.424;-1.948;2023-01-28T09:37:56;7.18;;;3.97;;
43363;SDS011;40636;52.424;-1.948;2023-01-28T09:40:38;6.85;;;4.07;;
43363;SDS011;40636;52.424;-1.948;2023-01-28T09:45:54;7.20;;;4.10;;
43363;SDS011;40636;52.424;-1.948;2023-01-28T09:48:25;8.52;;;4.20;;
43363;SDS011;40636;52.424;-1.948;2023-01-28T09:50:58;10.27;;;5.22;;
43363;SDS011;40636;52.424;-1.948;2023-01-28T09:58:33;7.10;;;3.45;;
43363;SDS011;40636;52.424;-1.948;2023-01-28T10:17:47;4.78;;;3.15;;
43363;SDS011;40636;52.424;-1.948;2023-01-28T10:20:36;5.07;;;3.20;;
43363;SDS011;40636;52.424;-1.948;2023-01-28T10:23:31;5.65;;;3.30;;
43363;SDS011;40636;52.424;-1.948;2023-01-28T10:26:29;5.63;;;3.42;;
43363;SDS011;40636;52.424;-1.948;2023-01-28T10:29:03;5.85;;;2.97;;
43363;SDS011;40636;52.424;-1.948;2023-01-28T10:31:38;3.97;;;3.20;;
43363;SDS011;40636;52.424;-1.948;2023-01-28T10:34:11;5.65;;;3.03;;
43363;SDS011;40636;52.424;-1.948;2023-01-28T10:36:37;5.10;;;2.55;;
43363;SDS011;40636;52.424;-1.948;2023-01-28T10:39:04;7.72;;;3.60;;
43363;SDS011;40636;52.424;-1.948;2023-01-28T10:41:33;6.05;;;3.28;;
43363;SDS011;40636;52.424;-1.948;2023-01-28T10:43:59;5.93;;;3.00;;
43363;SDS011;40636;52.424;-1.948;2023-01-28T10:46:31;6.90;;;3.40;;
43363;SDS011;40636;52.424;-1.948;2023-01-28T10:51:36;6.82;;;2.95;;
43363;SDS011;40636;52.424;-1.948;2023-01-28T10:54:16;5.32;;;3.25;;
43363;SDS011;40636;52.424;-1.948;2023-01-28T10:56:57;7.20;;;3.25;;
43363;SDS011;40636;52.424;-1.948;2023-01-28T10:59:30;9.27;;;3.88;;
43363;SDS011;40636;52.424;-1.948;2023-01-28T11:02:27;4.95;;;2.85;;
43363;SDS011;40636;52.424;-1.948;2023-01-28T11:07:43;8.65;;;2.67;;
43363;SDS011;40636;52.424;-1.948;2023-01-28T11:12:55;6.05;;;3.00;;
43363;SDS011;40636;52.424;-1.948;2023-01-28T11:15:23;4.88;;;3.10;;
43363;SDS011;40636;52.424;-1.948;2023-01-28T11:17:54;4.38;;;2.63;;
43363;SDS011;40636;52.424;-1.948;2023-01-28T11:20:28;7.80;;;2.85;;
43363;SDS011;40636;52.424;-1.948;2023-01-28T11:22:57;3.88;;;2.42;;
43363;SDS011;40636;52.424;-1.948;2023-01-28T11:25:28;5.50;;;2.10;;
43363;SDS011;40636;52.424;-1.948;2023-01-28T11:27:58;6.00;;;3.42;;
43363;SDS011;40636;52.424;-1.948;2023-01-28T11:30:33;6.75;;;2.85;;
43363;SDS011;40636;52.424;-1.948;2023-01-28T11:35:41;5.18;;;2.80;;
43363;SDS011;40636;52.424;-1.948;2023-01-28T11:38:19;5.32;;;3.55;;
43363;SDS011;40636;52.424;-1.948;2023-01-28T11:40:48;5.47;;;2.92;;
43363;SDS011;40636;52.424;-1.948;2023-01-28T11:43:18;6.05;;;2.72;;
43363;SDS011;40636;52.424;-1.948;2023-01-28T11:48:51;3.95;;;2.45;;
43363;SDS011;40636;52.424;-1.948;2023-01-28T11:51:38;5.03;;;2.97;;
43363;SDS011;40636;52.424;-1.948;2023-01-28T12:03:13;7.13;;;3.72;;
43363;SDS011;40636;52.424;-1.948;2023-01-28T12:14:22;7.90;;;4.07;;
43363;SDS011;40636;52.424;-1.948;2023-01-28T12:20:03;6.45;;;3.80;;
43363;SDS011;40636;52.424;-1.948;2023-01-28T12:22:42;6.47;;;3.30;;
43363;SDS011;40636;52.424;-1.948;2023-01-28T12:25:23;10.27;;;4.32;;
43363;SDS011;40636;52.424;-1.948;2023-01-28T12:41:40;6.63;;;4.15;;
43363;SDS011;40636;52.424;-1.948;2023-01-28T12:44:14;7.13;;;4.10;;
43363;SDS011;40636;52.424;-1.948;2023-01-28T12:46:59;6.93;;;4.05;;
43363;SDS011;40636;52.424;-1.948;2023-01-28T12:49:31;6.40;;;3.33;;
43363;SDS011;40636;52.424;-1.948;2023-01-28T12:57:38;11.18;;;3.80;;
43363;SDS011;40636;52.424;-1.948;2023-01-28T13:02:52;6.65;;;3.67;;
43363;SDS011;40636;52.424;-1.948;2023-01-28T13:05:30;10.77;;;4.65;;
43363;SDS011;40636;52.424;-1.948;2023-01-28T13:08:12;8.48;;;4.60;;
43363;SDS011;40636;52.424;-1.948;2023-01-28T13:10:45;10.70;;;4.38;;
43363;SDS011;40636;52.424;-1.948;2023-01-28T13:13:16;6.35;;;3.72;;
43363;SDS011;40636;52.424;-1.948;2023-01-28T13:15:48;6.00;;;3.95;;
43363;SDS011;40636;52.424;-1.948;2023-01-28T13:18:29;6.85;;;4.35;;
43363;SDS011;40636;52.424;-1.948;2023-01-28T13:21:05;10.52;;;4.57;;
43363;SDS011;40636;52.424;-1.948;2023-01-28T13:23:39;8.32;;;4.30;;
43363;SDS011;40636;52.424;-1.948;2023-01-28T13:28:50;5.93;;;4.15;;
43363;SDS011;40636;52.424;-1.948;2023-01-28T13:31:19;5.13;;;3.88;;
43363;SDS011;40636;52.424;-1.948;2023-01-28T13:36:32;6.68;;;4.15;;
43363;SDS011;40636;52.424;-1.948;2023-01-28T13:44:35;8.27;;;4.65;;
43363;SDS011;40636;52.424;-1.948;2023-01-28T13:49:41;8.55;;;4.57;;
43363;SDS011;40636;52.424;-1.948;2023-01-28T13:52:14;7.38;;;3.85;;
43363;SDS011;40636;52.424;-1.948;2023-01-28T13:54:50;10.18;;;5.10;;
43363;SDS011;40636;52.424;-1.948;2023-01-28T14:00:25;8.10;;;4.85;;
43363;SDS011;40636;52.424;-1.948;2023-01-28T14:03:27;9.80;;;5.63;;
43363;SDS011;40636;52.424;-1.948;2023-01-28T14:20:33;9.75;;;5.18;;
43363;SDS011;40636;52.424;-1.948;2023-01-28T14:23:05;8.20;;;4.85;;
43363;SDS011;40636;52.424;-1.948;2023-01-28T14:25:48;7.97;;;4.30;;
43363;SDS011;40636;52.424;-1.948;2023-01-28T14:33:41;5.05;;;3.85;;
43363;SDS011;40636;52.424;-1.948;2023-01-28T14:36:09;11.10;;;5.53;;
43363;SDS011;40636;52.424;-1.948;2023-01-28T14:38:38;8.10;;;4.35;;
43363;SDS011;40636;52.424;-1.948;2023-01-28T14:41:08;6.63;;;5.10;;
43363;SDS011;40636;52.424;-1.948;2023-01-28T14:43:46;5.85;;;3.72;;
43363;SDS011;40636;52.424;-1.948;2023-01-28T14:46:30;12.70;;;4.70;;
43363;SDS011;40636;52.424;-1.948;2023-01-28T14:49:20;10.30;;;4.80;;
43363;SDS011;40636;52.424;-1.948;2023-01-28T14:52:02;10.30;;;5.07;;
43363;SDS011;40636;52.424;-1.948;2023-01-28T14:57:39;9.55;;;4.78;;
43363;SDS011;40636;52.424;-1.948;2023-01-28T15:00:22;12.73;;;4.95;;
43363;SDS011;40636;52.424;-1.948;2023-01-28T15:02:52;7.80;;;5.03;;
43363;SDS011;40636;52.424;-1.948;2023-01-28T15:05:23;11.07;;;4.85;;
43363;SDS011;40636;52.424;-1.948;2023-01-28T15:07:52;9.73;;;4.55;;
43363;SDS011;40636;52.424;-1.948;2023-01-28T15:15:29;9.88;;;5.10;;
43363;SDS011;40636;52.424;-1.948;2023-01-28T15:20:47;14.02;;;6.10;;
43363;SDS011;40636;52.424;-1.948;2023-01-28T15:23:24;8.85;;;5.68;;
43363;SDS011;40636;52.424;-1.948;2023-01-28T15:25:58;18.67;;;7.45;;
43363;SDS011;40636;52.424;-1.948;2023-01-28T15:28:30;14.07;;;5.93;;
43363;SDS011;40636;52.424;-1.948;2023-01-28T15:30:58;15.30;;;6.75;;
43363;SDS011;40636;52.424;-1.948;2023-01-28T15:33:25;9.65;;;6.20;;
43363;SDS011;40636;52.424;-1.948;2023-01-28T15:35:53;12.80;;;6.82;;
43363;SDS011;40636;52.424;-1.948;2023-01-28T15:38:21;10.57;;;5.78;;
43363;SDS011;40636;52.424;-1.948;2023-01-28T15:40:59;9.60;;;5.60;;
43363;SDS011;40636;52.424;-1.948;2023-01-28T15:43:28;12.07;;;6.10;;
43363;SDS011;40636;52.424;-1.948;2023-01-28T15:45:57;10.93;;;6.80;;
43363;SDS011;40636;52.424;-1.948;2023-01-28T15:48:25;11.88;;;6.30;;
43363;SDS011;40636;52.424;-1.948;2023-01-28T15:50:58;12.82;;;5.85;;
43363;SDS011;40636;52.424;-1.948;2023-01-28T15:53:35;12.07;;;6.10;;
43363;SDS011;40636;52.424;-1.948;2023-01-28T15:56:09;13.25;;;5.57;;
43363;SDS011;40636;52.424;-1.948;2023-01-28T15:58:37;10.20;;;6.10;;
43363;SDS011;40636;52.424;-1.948;2023-01-28T16:03:36;12.07;;;6.20;;
43363;SDS011;40636;52.424;-1.948;2023-01-28T16:06:12;9.90;;;6.38;;
43363;SDS011;40636;52.424;-1.948;2023-01-28T16:08:47;13.52;;;8.65;;
43363;SDS011;40636;52.424;-1.948;2023-01-28T16:11:20;12.38;;;6.35;;
43363;SDS011;40636;52.424;-1.948;2023-01-28T16:13:53;11.90;;;6.10;;
43363;SDS011;40636;52.424;-1.948;2023-01-28T16:16:26;10.68;;;5.60;;
43363;SDS011;40636;52.424;-1.948;2023-01-28T16:19:02;7.82;;;5.60;;
43363;SDS011;40636;52.424;-1.948;2023-01-28T16:21:42;9.20;;;6.25;;
43363;SDS011;40636;52.424;-1.948;2023-01-28T16:26:57;10.07;;;5.40;;
43363;SDS011;40636;52.424;-1.948;2023-01-28T16:29:26;13.65;;;5.97;;
43363;SDS011;40636;52.424;-1.948;2023-01-28T16:31:56;10.65;;;6.80;;
43363;SDS011;40636;52.424;-1.948;2023-01-28T16:34:25;13.32;;;7.05;;
43363;SDS011;40636;52.424;-1.948;2023-01-28T16:36:58;13.32;;;6.05;;
43363;SDS011;40636;52.424;-1.948;2023-01-28T16:39:25;10.48;;;5.47;;
43363;SDS011;40636;52.424;-1.948;2023-01-28T16:41:52;8.73;;;5.32;;
43363;SDS011;40636;52.424;-1.948;2023-01-28T16:44:19;9.57;;;6.30;;
43363;SDS011;40636;52.424;-1.948;2023-01-28T16:46:45;11.60;;;5.75;;
43363;SDS011;40636;52.424;-1.948;2023-01-28T16:49:12;6.78;;;5.28;;
43363;SDS011;40636;52.424;-1.948;2023-01-28T16:51:39;12.27;;;5.93;;
43363;SDS011;40636;52.424;-1.948;2023-01-28T16:54:12;15.55;;;6.90;;
43363;SDS011;40636;52.424;-1.948;2023-01-28T16:56:41;9.85;;;6.40;;
43363;SDS011;40636;52.424;-1.948;2023-01-28T16:59:12;13.65;;;8.02;;
43363;SDS011;40636;52.424;-1.948;2023-01-28T17:01:41;16.08;;;9.55;;
43363;SDS011;40636;52.424;-1.948;2023-01-28T17:04:09;15.43;;;8.95;;
43363;SDS011;40636;52.424;-1.948;2023-01-28T17:06:38;15.57;;;9.50;;
43363;SDS011;40636;52.424;-1.948;2023-01-28T17:09:08;16.40;;;9.65;;
43363;SDS011;40636;52.424;-1.948;2023-01-28T17:11:37;11.90;;;6.80;;
43363;SDS011;40636;52.424;-1.948;2023-01-28T17:14:05;9.95;;;5.95;;
43363;SDS011;40636;52.424;-1.948;2023-01-28T17:16:31;12.85;;;6.30;;
43363;SDS011;40636;52.424;-1.948;2023-01-28T17:18:58;12.70;;;6.78;;
43363;SDS011;40636;52.424;-1.948;2023-01-28T17:21:25;12.98;;;6.30;;
43363;SDS011;40636;52.424;-1.948;2023-01-28T17:23:51;13.70;;;6.80;;
43363;SDS011;40636;52.424;-1.948;2023-01-28T17:26:18;16.05;;;6.65;;
43363;SDS011;40636;52.424;-1.948;2023-01-28T17:28:49;13.52;;;6.88;;
43363;SDS011;40636;52.424;-1.948;2023-01-28T17:31:18;10.25;;;6.50;;
43363;SDS011;40636;52.424;-1.948;2023-01-28T17:33:44;16.83;;;6.90;;